Time;durP1;ratioP1;P1;durP2;ratioP2;P2;SDS_P1;SDS_P2;PMS_P1;PMS_P2;Temp;Humidity;BMP_temperature;BMP_pressure;BME280_temperature;BME280_humidity;BME280_pressure;Samples;Min_cycle;Max_cycle;Signal;HPM_P1;HPM_P2
2023/08/19 00:01:41;;;;;;;27.40;19.10;;;24.20;99.90;;;;;;4996620;28;20240;-63
2023/08/19 00:04:10;;;;;;;26.13;20.03;;;24.20;99.90;;;;;;5005182;28;20197;-63
2023/08/19 00:06:40;;;;;;;25.70;19.67;;;24.10;99.90;;;;;;5005606;28;20291;-63
2023/08/19 00:09:09;;;;;;;25.30;18.77;;;24.10;99.90;;;;;;5004907;28;20244;-63
2023/08/19 00:11:39;;;;;;;26.47;19.83;;;24.10;99.90;;;;;;5007087;28;20362;-63
2023/08/19 00:14:07;;;;;;;27.17;18.47;;;24.10;99.90;;;;;;5006769;28;20214;-64
2023/08/19 00:16:36;;;;;;;25.70;17.23;;;24.10;99.90;;;;;;5010228;28;20205;-64
2023/08/19 00:19:06;;;;;;;27.33;17.47;;;24.10;99.90;;;;;;5008715;28;20217;-64
2023/08/19 00:21:34;;;;;;;22.97;17.23;;;24.10;99.90;;;;;;5003952;28;20234;-64
2023/08/19 00:24:03;;;;;;;24.53;16.93;;;24.10;99.90;;;;;;5003257;28;20223;-64
2023/08/19 00:26:31;;;;;;;19.60;15.40;;;24.10;99.90;;;;;;5005622;28;20215;-64
2023/08/19 00:28:59;;;;;;;19.47;15.30;;;24.10;99.90;;;;;;5005285;28;20850;-64
2023/08/19 00:31:28;;;;;;;20.10;15.00;;;24.10;99.90;;;;;;4996009;28;20648;-64
2023/08/19 00:33:57;;;;;;;19.83;14.23;;;24.20;99.90;;;;;;5003894;28;20298;-64
2023/08/19 00:36:27;;;;;;;18.83;14.13;;;24.20;99.90;;;;;;5005190;28;20229;-64
2023/08/19 00:38:56;;;;;;;16.20;13.53;;;24.20;99.90;;;;;;5009123;28;20225;-64
2023/08/19 00:41:24;;;;;;;17.43;13.37;;;24.20;99.90;;;;;;5007546;28;20952;-64
2023/08/19 00:43:52;;;;;;;15.83;12.87;;;24.20;99.90;;;;;;5004253;28;20222;-64
2023/08/19 00:46:21;;;;;;;18.80;13.40;;;24.20;99.90;;;;;;5000311;28;20216;-64
2023/08/19 00:48:49;;;;;;;16.90;13.33;;;24.30;99.90;;;;;;5006375;28;20199;-64
2023/08/19 00:51:18;;;;;;;19.60;12.00;;;24.30;99.90;;;;;;5005700;28;20225;-63
2023/08/19 00:53:48;;;;;;;19.33;12.43;;;24.30;99.90;;;;;;5004650;28;20228;-62
2023/08/19 00:56:16;;;;;;;16.57;12.40;;;24.20;99.90;;;;;;5004318;28;20221;-63
2023/08/19 00:58:45;;;;;;;15.77;12.90;;;24.20;99.90;;;;;;5005936;28;20234;-63
2023/08/19 01:01:13;;;;;;;17.10;12.43;;;24.20;99.90;;;;;;5007742;28;20241;-63
2023/08/19 01:03:42;;;;;;;16.43;12.87;;;24.20;99.90;;;;;;5004079;28;20745;-63
2023/08/19 01:06:22;;;;;;;19.23;13.07;;;24.10;99.90;;;;;;5008290;28;20250;-63
2023/08/19 01:09:04;;;;;;;17.23;12.47;;;24.10;99.90;;;;;;4999120;28;20639;-64
2023/08/19 01:11:55;;;;;;;14.33;12.33;;;24.10;99.90;;;;;;5003612;28;20238;-64
2023/08/19 01:14:35;;;;;;;15.67;12.87;;;24.00;99.90;;;;;;5008036;28;20309;-63
2023/08/19 01:17:09;;;;;;;15.63;12.50;;;24.00;99.90;;;;;;5006333;28;20317;-64
2023/08/19 01:19:39;;;;;;;16.77;11.97;;;24.00;99.90;;;;;;5004642;28;20230;-63
2023/08/19 01:22:09;;;;;;;15.20;11.20;;;24.00;99.90;;;;;;5000311;28;20199;-63
2023/08/19 01:24:39;;;;;;;17.27;12.20;;;24.00;99.90;;;;;;5004990;28;20600;-63
2023/08/19 01:27:23;;;;;;;18.43;12.10;;;24.10;99.90;;;;;;5002875;28;20229;-64
2023/08/19 01:29:51;;;;;;;16.03;11.93;;;24.10;99.90;;;;;;5003984;28;20228;-63
2023/08/19 01:32:21;;;;;;;15.20;11.07;;;24.10;99.90;;;;;;4999468;28;21208;-63
2023/08/19 01:34:50;;;;;;;15.17;11.73;;;24.10;99.90;;;;;;5004486;28;20224;-63
2023/08/19 01:37:27;;;;;;;15.23;10.87;;;24.10;99.90;;;;;;5000330;28;20274;-63
2023/08/19 01:39:59;;;;;;;13.60;11.07;;;24.00;99.90;;;;;;5004205;28;20195;-64
2023/08/19 01:42:27;;;;;;;16.40;12.00;;;24.00;99.90;;;;;;5002875;28;20228;-64
2023/08/19 01:44:56;;;;;;;13.47;11.03;;;24.00;99.90;;;;;;5002512;28;20622;-64
2023/08/19 01:47:24;;;;;;;13.27;10.93;;;24.00;99.90;;;;;;5004685;28;20308;-64
2023/08/19 01:49:52;;;;;;;11.67;10.37;;;24.00;99.90;;;;;;5006197;28;20236;-63
2023/08/19 01:52:21;;;;;;;14.27;10.77;;;23.90;99.90;;;;;;5005785;28;20215;-63
2023/08/19 01:54:49;;;;;;;11.77;10.30;;;24.00;99.90;;;;;;5004520;28;20197;-64
2023/08/19 01:57:19;;;;;;;14.90;10.67;;;24.00;99.90;;;;;;5006818;28;20221;-63
2023/08/19 01:59:49;;;;;;;13.27;10.30;;;24.00;99.90;;;;;;5005035;28;20234;-63
2023/08/19 02:02:17;;;;;;;13.53;10.07;;;23.90;99.90;;;;;;5006143;28;20225;-63
2023/08/19 02:04:46;;;;;;;12.67;10.60;;;24.00;99.90;;;;;;5005874;28;20225;-63
2023/08/19 02:07:14;;;;;;;11.07;9.80;;;23.90;99.90;;;;;;5008681;28;20206;-63
2023/08/19 02:09:43;;;;;;;13.50;10.47;;;23.90;99.90;;;;;;4999096;28;20218;-63
2023/08/19 02:12:11;;;;;;;13.20;10.40;;;23.80;99.90;;;;;;5001297;28;20230;-64
2023/08/19 02:14:40;;;;;;;14.23;10.83;;;23.80;99.90;;;;;;5005740;28;20240;-64
2023/08/19 02:17:09;;;;;;;12.03;10.43;;;23.80;99.90;;;;;;5001081;28;20233;-65
2023/08/19 02:19:37;;;;;;;13.03;10.37;;;23.80;99.90;;;;;;5005420;28;20711;-64
2023/08/19 02:22:06;;;;;;;12.67;9.97;;;23.80;99.90;;;;;;5007568;28;20194;-64
2023/08/19 02:24:34;;;;;;;12.93;10.27;;;23.80;99.90;;;;;;4983766;28;20234;-64
2023/08/19 02:27:02;;;;;;;13.27;10.00;;;23.80;99.90;;;;;;5003774;28;20221;-64
2023/08/19 02:29:31;;;;;;;11.10;9.50;;;23.70;99.90;;;;;;5004063;28;20232;-64
2023/08/19 02:32:00;;;;;;;12.33;10.07;;;23.70;99.90;;;;;;5001704;28;20222;-64
2023/08/19 02:34:29;;;;;;;12.33;9.60;;;23.70;99.90;;;;;;5006435;28;20227;-63
2023/08/19 02:36:57;;;;;;;12.47;9.80;;;23.70;99.90;;;;;;5004764;28;20189;-64
2023/08/19 02:39:25;;;;;;;12.13;9.80;;;23.60;99.90;;;;;;4999117;28;20222;-64
2023/08/19 02:41:54;;;;;;;12.97;9.83;;;23.60;99.90;;;;;;5002511;28;20239;-64
2023/08/19 02:44:22;;;;;;;11.93;9.33;;;23.60;99.90;;;;;;5002058;28;20217;-64
2023/08/19 02:46:50;;;;;;;14.47;10.97;;;23.60;99.90;;;;;;5004613;28;20321;-64
2023/08/19 02:49:20;;;;;;;12.03;9.20;;;23.50;99.90;;;;;;5005430;28;20389;-64
2023/08/19 02:51:48;;;;;;;12.27;9.97;;;23.50;99.90;;;;;;5004396;28;20191;-64
2023/08/19 02:54:16;;;;;;;11.10;9.57;;;23.50;99.90;;;;;;5003722;28;20245;-64
2023/08/19 02:56:45;;;;;;;14.00;9.43;;;23.50;99.90;;;;;;5001153;28;20589;-64
2023/08/19 02:59:13;;;;;;;9.73;8.73;;;23.50;99.90;;;;;;5000432;28;20229;-64
2023/08/19 03:01:42;;;;;;;10.50;8.60;;;23.50;99.90;;;;;;5003231;28;20649;-64
2023/08/19 03:04:10;;;;;;;12.47;9.53;;;23.40;99.90;;;;;;5006004;28;20208;-64
2023/08/19 03:06:41;;;;;;;13.80;9.27;;;23.40;99.90;;;;;;5001309;28;20253;-64
2023/08/19 03:09:09;;;;;;;16.23;9.93;;;23.30;99.90;;;;;;5004321;28;20235;-64
2023/08/19 03:11:37;;;;;;;16.67;9.60;;;23.30;99.90;;;;;;5001499;28;20229;-64
2023/08/19 03:14:06;;;;;;;10.77;9.20;;;23.30;99.90;;;;;;5007619;28;20224;-64
2023/08/19 03:16:34;;;;;;;11.63;9.40;;;23.20;99.90;;;;;;5002964;28;20189;-64
2023/08/19 03:19:02;;;;;;;13.23;9.70;;;23.20;99.90;;;;;;5005715;28;20705;-64
2023/08/19 03:21:30;;;;;;;14.40;9.10;;;23.20;99.90;;;;;;5007400;28;20730;-64
2023/08/19 03:24:00;;;;;;;13.20;9.50;;;23.20;99.90;;;;;;4999131;28;20570;-64
2023/08/19 03:26:28;;;;;;;11.70;8.80;;;23.20;99.90;;;;;;5003361;28;20653;-64
2023/08/19 03:28:56;;;;;;;12.60;9.20;;;23.20;99.90;;;;;;5003083;28;20588;-64
2023/08/19 03:31:25;;;;;;;13.90;9.30;;;23.20;99.90;;;;;;5000781;28;20647;-65
2023/08/19 03:33:54;;;;;;;10.50;8.90;;;23.20;99.90;;;;;;5002754;28;20301;-64
2023/08/19 03:36:22;;;;;;;13.43;8.60;;;23.20;99.90;;;;;;5001479;28;20229;-64
2023/08/19 03:38:51;;;;;;;13.73;9.03;;;23.20;99.90;;;;;;5003969;28;20293;-64
2023/08/19 03:41:20;;;;;;;11.50;8.67;;;23.20;99.90;;;;;;5001063;28;20569;-64
2023/08/19 03:43:49;;;;;;;12.93;9.63;;;23.20;99.90;;;;;;5006315;28;20222;-64
2023/08/19 03:46:17;;;;;;;9.73;8.70;;;23.20;99.90;;;;;;5006827;28;20199;-64
2023/08/19 03:48:45;;;;;;;10.63;8.70;;;23.20;99.90;;;;;;5008035;28;20244;-64
2023/08/19 03:51:13;;;;;;;10.57;8.23;;;23.20;99.90;;;;;;5009295;28;20238;-64
2023/08/19 03:53:42;;;;;;;11.20;8.63;;;23.20;99.90;;;;;;5007886;28;20232;-64
2023/08/19 03:56:10;;;;;;;11.03;8.33;;;23.20;99.90;;;;;;5004595;28;20606;-64
2023/08/19 03:58:40;;;;;;;9.97;8.47;;;23.20;99.90;;;;;;5005822;28;20228;-64
2023/08/19 04:01:09;;;;;;;8.83;7.93;;;23.20;99.90;;;;;;4990056;28;20201;-64
2023/08/19 04:03:37;;;;;;;11.60;8.10;;;23.20;99.90;;;;;;5002651;28;20224;-64
2023/08/19 04:06:06;;;;;;;8.60;7.57;;;23.30;99.90;;;;;;5002318;28;20716;-64
2023/08/19 04:08:34;;;;;;;11.73;7.50;;;23.30;99.90;;;;;;5007727;28;20248;-65
2023/08/19 04:11:05;;;;;;;13.37;8.37;;;23.30;99.90;;;;;;5000761;28;20312;-64
2023/08/19 04:13:34;;;;;;;9.47;7.73;;;23.30;99.90;;;;;;5008044;28;20236;-64
2023/08/19 04:16:05;;;;;;;8.47;7.50;;;23.30;99.90;;;;;;5005821;28;20284;-64
2023/08/19 04:18:34;;;;;;;10.57;7.97;;;23.30;99.90;;;;;;5006703;28;20222;-64
2023/08/19 04:21:06;;;;;;;9.03;7.40;;;23.30;99.90;;;;;;5005971;28;20225;-64
2023/08/19 04:23:35;;;;;;;9.50;7.10;;;23.30;99.90;;;;;;4990957;28;20305;-64
2023/08/19 04:26:03;;;;;;;7.97;7.10;;;23.30;99.90;;;;;;5002978;28;20226;-64
2023/08/19 04:28:31;;;;;;;7.27;6.67;;;23.20;99.90;;;;;;4993870;28;20213;-64
2023/08/19 04:31:05;;;;;;;10.40;7.33;;;23.30;99.90;;;;;;5008809;28;20198;-64
2023/08/19 04:33:34;;;;;;;10.03;6.93;;;23.20;99.90;;;;;;5005441;28;20225;-64
2023/08/19 04:36:03;;;;;;;7.90;7.10;;;23.30;99.90;;;;;;5008122;28;20603;-63
2023/08/19 04:38:32;;;;;;;10.93;6.83;;;23.20;99.90;;;;;;5007347;28;20308;-63
2023/08/19 04:41:00;;;;;;;10.20;7.23;;;23.20;99.90;;;;;;5007307;28;20226;-63
2023/08/19 04:43:29;;;;;;;7.80;6.70;;;23.20;99.90;;;;;;4995242;28;20219;-63
2023/08/19 04:45:57;;;;;;;9.03;6.97;;;23.20;99.90;;;;;;4998213;28;20198;-63
2023/08/19 04:48:27;;;;;;;8.20;6.57;;;23.20;99.90;;;;;;5004978;28;20225;-63
2023/08/19 04:50:55;;;;;;;11.00;7.00;;;23.20;99.90;;;;;;5008863;28;20214;-64
2023/08/19 04:53:24;;;;;;;9.83;6.70;;;23.30;99.90;;;;;;5001735;28;20584;-63
2023/08/19 04:55:59;;;;;;;13.10;6.70;;;23.30;99.90;;;;;;4998633;28;20252;-64
2023/08/19 04:58:27;;;;;;;13.87;6.40;;;23.30;99.90;;;;;;5006358;28;20196;-63
2023/08/19 05:00:56;;;;;;;11.90;7.00;;;23.40;99.90;;;;;;5001396;28;20192;-63
2023/08/19 05:03:25;;;;;;;7.40;6.50;;;23.40;99.90;;;;;;5002420;28;20636;-63
2023/08/19 05:05:54;;;;;;;12.07;7.17;;;23.50;99.90;;;;;;5001282;28;20225;-64
2023/08/19 05:08:22;;;;;;;10.43;6.30;;;23.50;99.90;;;;;;5003296;28;20776;-63
2023/08/19 05:10:50;;;;;;;7.23;6.53;;;23.50;99.90;;;;;;5003969;28;20272;-63
2023/08/19 05:13:19;;;;;;;7.97;6.07;;;23.50;99.90;;;;;;5004550;28;20236;-64
2023/08/19 05:15:47;;;;;;;7.20;6.60;;;23.50;99.90;;;;;;5005552;28;20580;-63
2023/08/19 05:18:16;;;;;;;7.07;6.33;;;23.60;99.90;;;;;;5006899;28;20218;-63
2023/08/19 05:20:46;;;;;;;12.10;6.40;;;23.60;99.90;;;;;;5004933;28;20225;-64
2023/08/19 05:23:15;;;;;;;9.10;6.17;;;23.60;99.90;;;;;;5003436;28;20352;-64
2023/08/19 05:25:44;;;;;;;7.03;6.30;;;23.70;99.90;;;;;;5005326;28;20316;-63
2023/08/19 05:28:12;;;;;;;7.30;6.57;;;23.70;99.90;;;;;;5007314;28;20217;-63
2023/08/19 05:30:41;;;;;;;8.67;6.20;;;23.80;99.90;;;;;;5003379;28;20272;-63
2023/08/19 05:33:09;;;;;;;11.37;5.97;;;23.80;99.90;;;;;;5002293;28;20222;-63
2023/08/19 05:35:37;;;;;;;6.70;6.20;;;23.80;99.90;;;;;;5001988;28;20229;-63
2023/08/19 05:38:07;;;;;;;6.80;6.20;;;23.80;99.90;;;;;;4989082;28;20316;-63
2023/08/19 05:40:36;;;;;;;6.83;6.10;;;23.90;99.90;;;;;;5007260;28;20199;-64
2023/08/19 05:43:04;;;;;;;11.90;6.40;;;23.90;99.90;;;;;;5005102;28;20190;-63
2023/08/19 05:45:33;;;;;;;7.03;6.27;;;24.00;99.90;;;;;;5000026;28;20592;-63
2023/08/19 05:48:03;;;;;;;7.07;5.97;;;24.10;99.90;;;;;;5003655;28;20245;-63
2023/08/19 05:50:32;;;;;;;7.20;6.30;;;24.20;99.90;;;;;;5005889;28;20225;-64
2023/08/19 05:53:00;;;;;;;7.17;6.47;;;24.30;99.60;;;;;;4998775;28;20257;-64
2023/08/19 05:55:30;;;;;;;10.57;6.20;;;24.30;97.50;;;;;;5001430;28;20194;-63
2023/08/19 05:57:58;;;;;;;9.67;6.97;;;24.20;95.70;;;;;;5003260;28;20256;-63
2023/08/19 06:00:26;;;;;;;8.03;6.57;;;24.20;92.50;;;;;;5002663;28;20719;-63
2023/08/19 06:02:55;;;;;;;7.10;6.40;;;24.20;96.10;;;;;;5004471;28;20260;-63
2023/08/19 06:05:24;;;;;;;11.10;6.10;;;24.30;92.70;;;;;;5005078;28;20313;-63
2023/08/19 06:07:52;;;;;;;10.70;6.50;;;24.30;94.00;;;;;;5007605;28;20225;-63
2023/08/19 06:10:20;;;;;;;9.53;7.10;;;24.30;91.50;;;;;;5006490;28;20203;-64
2023/08/19 06:12:50;;;;;;;6.47;5.97;;;24.40;84.90;;;;;;4986997;28;20226;-63
2023/08/19 06:15:22;;;;;;;8.90;6.53;;;24.40;87.10;;;;;;4991271;28;20221;-63
2023/08/19 06:17:50;;;;;;;9.00;6.30;;;24.50;84.40;;;;;;5010133;28;20600;-64
2023/08/19 06:20:19;;;;;;;10.63;6.27;;;24.60;77.30;;;;;;5011135;28;20248;-63
2023/08/19 06:22:47;;;;;;;7.40;6.70;;;24.50;79.00;;;;;;5005025;28;20226;-63
2023/08/19 06:25:15;;;;;;;7.37;6.10;;;24.50;83.30;;;;;;5004093;28;20308;-64
2023/08/19 06:27:44;;;;;;;9.90;6.80;;;24.50;87.10;;;;;;5003439;28;20215;-63
2023/08/19 06:30:14;;;;;;;10.27;6.53;;;24.50;88.10;;;;;;5000954;28;20317;-64
2023/08/19 06:32:43;;;;;;;8.60;6.40;;;24.40;90.40;;;;;;5006470;28;20217;-62
2023/08/19 06:35:13;;;;;;;9.33;6.60;;;24.40;94.60;;;;;;4992845;28;20230;-63
2023/08/19 06:37:47;;;;;;;7.20;6.43;;;24.40;95.60;;;;;;4993756;28;20270;-63
2023/08/19 06:40:19;;;;;;;7.50;6.80;;;24.40;93.90;;;;;;4985380;28;20665;-64
2023/08/19 06:42:49;;;;;;;9.03;6.23;;;24.40;96.40;;;;;;5001958;28;20269;-63
2023/08/19 06:45:21;;;;;;;8.13;6.30;;;24.50;99.60;;;;;;4985412;28;20310;-63
2023/08/19 06:47:53;;;;;;;7.50;6.70;;;24.50;97.10;;;;;;5003300;28;20237;-63
2023/08/19 06:50:22;;;;;;;7.27;6.57;;;24.50;95.70;;;;;;5005326;28;20316;-63
2023/08/19 06:52:52;;;;;;;7.13;6.57;;;24.50;96.70;;;;;;5003909;28;20222;-63
2023/08/19 06:55:21;;;;;;;8.00;6.77;;;24.60;92.70;;;;;;5002504;28;20197;-63
2023/08/19 06:57:58;;;;;;;14.70;7.77;;;24.60;99.30;;;;;;5005004;28;20197;-63
2023/08/19 07:00:29;;;;;;;8.90;7.17;;;24.70;97.40;;;;;;5002758;28;20218;-63
2023/08/19 07:02:58;;;;;;;10.23;7.30;;;24.70;94.40;;;;;;5006338;28;20214;-63
2023/08/19 07:05:30;;;;;;;8.97;7.20;;;24.70;93.90;;;;;;5004019;28;20305;-63
2023/08/19 07:08:01;;;;;;;8.30;6.93;;;24.80;90.80;;;;;;5002746;28;20326;-63
2023/08/19 07:10:30;;;;;;;7.83;6.97;;;24.80;95.00;;;;;;5000021;28;20202;-63
2023/08/19 07:12:59;;;;;;;11.40;7.23;;;24.80;81.20;;;;;;5003652;28;20245;-63
2023/08/19 07:15:30;;;;;;;13.03;6.77;;;24.80;70.30;;;;;;4991112;28;20218;-63
2023/08/19 07:18:00;;;;;;;9.90;7.37;;;24.80;60.10;;;;;;5007571;28;20215;-63
2023/08/19 07:20:29;;;;;;;10.07;6.73;;;24.80;60.80;;;;;;5010557;28;20636;-63
2023/08/19 07:23:00;;;;;;;9.67;6.20;;;24.80;68.80;;;;;;5005693;28;20272;-63
2023/08/19 07:25:29;;;;;;;8.10;6.83;;;24.80;71.70;;;;;;5005120;28;20214;-63
2023/08/19 07:28:03;;;;;;;9.53;7.07;;;24.90;58.00;;;;;;5008616;28;20186;-63
2023/08/19 07:30:33;;;;;;;7.80;6.87;;;24.80;56.00;;;;;;5006994;28;20222;-64
2023/08/19 07:33:04;;;;;;;8.13;6.33;;;24.80;59.50;;;;;;5006370;28;20280;-63
2023/08/19 07:35:33;;;;;;;8.10;6.83;;;24.90;48.90;;;;;;4989085;28;20224;-63
2023/08/19 07:38:02;;;;;;;8.13;6.60;;;24.90;13.90;;;;;;5008067;28;20306;-63
2023/08/19 07:40:31;;;;;;;9.67;6.47;;;24.90;14.40;;;;;;5006010;28;20204;-64
2023/08/19 07:42:59;;;;;;;7.13;5.80;;;25.00;1.00;;;;;;5007286;28;20319;-63
2023/08/19 07:45:28;;;;;;;6.70;6.07;;;25.00;1.00;;;;;;5003772;28;20228;-63
2023/08/19 07:47:57;;;;;;;6.27;5.63;;;25.10;1.00;;;;;;5005538;28;20715;-63
2023/08/19 07:50:26;;;;;;;6.73;5.47;;;25.20;1.00;;;;;;5005829;28;20225;-64
2023/08/19 07:52:54;;;;;;;5.60;4.97;;;25.30;1.00;;;;;;5008483;28;20660;-64
2023/08/19 07:55:23;;;;;;;5.73;5.17;;;25.40;1.00;;;;;;5005105;28;21729;-63
2023/08/19 07:57:52;;;;;;;5.50;4.97;;;25.50;1.00;;;;;;5004526;28;20191;-64
2023/08/19 08:00:22;;;;;;;9.13;5.30;;;25.50;1.00;;;;;;5002791;28;20218;-64
2023/08/19 08:02:50;;;;;;;8.43;5.05;;;25.80;1.00;;;;;;5006720;28;20230;-64
2023/08/19 08:05:20;;;;;;;6.20;4.97;;;26.10;1.00;;;;;;5002894;28;20226;-64
2023/08/19 08:07:48;;;;;;;5.53;5.05;;;26.20;1.00;;;;;;5002293;28;20393;-63
2023/08/19 08:10:17;;;;;;;6.43;4.70;;;26.30;1.00;;;;;;5000911;28;20212;-64
2023/08/19 08:12:45;;;;;;;6.88;5.18;;;26.40;1.00;;;;;;5006113;28;20233;-63
2023/08/19 08:15:13;;;;;;;4.35;4.00;;;26.40;1.00;;;;;;5005997;28;20224;-64
2023/08/19 08:17:42;;;;;;;4.13;3.97;;;26.30;99.90;;;;;;5007152;28;20574;-63
2023/08/19 08:20:11;;;;;;;6.65;4.20;;;26.40;99.90;;;;;;5003314;28;20224;-64
2023/08/19 08:22:40;;;;;;;6.28;4.65;;;26.40;99.90;;;;;;4983439;28;20643;-64
2023/08/19 08:25:10;;;;;;;5.25;4.75;;;26.50;99.90;;;;;;5002732;28;20231;-64
2023/08/19 08:27:39;;;;;;;5.20;4.70;;;26.50;99.90;;;;;;5004742;28;20327;-64
2023/08/19 08:30:08;;;;;;;4.80;4.43;;;26.70;99.90;;;;;;5009763;28;20235;-64
2023/08/19 08:32:36;;;;;;;6.00;5.40;;;26.90;99.90;;;;;;5004485;28;20229;-64
2023/08/19 08:35:05;;;;;;;7.00;5.63;;;27.00;99.90;;;;;;5005482;28;20286;-64
2023/08/19 08:37:34;;;;;;;7.22;4.90;;;27.00;99.90;;;;;;5004799;28;20908;-64
2023/08/19 08:40:05;;;;;;;7.35;5.05;;;27.10;99.90;;;;;;5002367;28;20216;-64
2023/08/19 08:42:34;;;;;;;6.75;6.18;;;26.90;99.90;;;;;;5009688;28;20711;-63
2023/08/19 08:45:02;;;;;;;6.97;6.30;;;26.70;99.90;;;;;;5008394;28;20227;-63
2023/08/19 08:47:32;;;;;;;6.35;5.75;;;26.40;99.90;;;;;;5005763;28;20218;-63
2023/08/19 08:50:00;;;;;;;11.18;6.97;;;26.10;1.00;;;;;;5009033;28;20504;-63
2023/08/19 08:52:29;;;;;;;11.50;6.07;;;25.90;1.00;;;;;;5011175;28;20178;-64
2023/08/19 08:55:00;;;;;;;6.20;5.57;;;25.80;1.00;;;;;;5009794;28;20203;-63
2023/08/19 08:57:30;;;;;;;6.83;6.13;;;25.80;1.00;;;;;;5002761;28;21821;-64
2023/08/19 08:59:59;;;;;;;6.93;6.33;;;25.70;1.00;;;;;;5004868;28;20212;-63
2023/08/19 09:02:28;;;;;;;7.90;5.93;;;25.60;1.00;;;;;;5004904;28;20223;-63
2023/08/19 09:04:57;;;;;;;8.50;6.70;;;25.60;1.00;;;;;;5003389;28;20313;-63
2023/08/19 09:07:31;;;;;;;7.50;6.10;;;25.60;1.00;;;;;;5003514;28;20187;-63
2023/08/19 09:10:02;;;;;;;8.37;6.53;;;25.50;1.00;;;;;;5009417;28;20202;-63
2023/08/19 09:12:35;;;;;;;9.43;6.10;;;25.50;1.00;;;;;;5003218;28;20238;-63
2023/08/19 09:15:06;;;;;;;5.67;5.17;;;25.50;1.00;;;;;;5003006;28;20233;-63
2023/08/19 09:17:35;;;;;;;9.23;5.50;;;25.50;1.00;;;;;;5005096;28;20229;-63
2023/08/19 09:20:04;;;;;;;10.93;5.40;;;25.60;1.00;;;;;;5006256;28;20215;-64
2023/08/19 09:22:32;;;;;;;5.67;5.10;;;25.70;1.00;;;;;;5003487;28;20222;-64
2023/08/19 09:25:06;;;;;;;7.50;4.37;;;25.70;1.00;;;;;;5008361;28;20217;-64
2023/08/19 09:27:36;;;;;;;5.83;4.07;;;25.70;99.90;;;;;;5002496;28;20226;-64
2023/08/19 09:30:06;;;;;;;4.97;3.90;;;25.70;99.90;;;;;;4992284;28;20225;-64
2023/08/19 09:32:36;;;;;;;7.80;4.13;;;25.90;99.90;;;;;;5000692;28;20274;-64
2023/08/19 09:35:07;;;;;;;5.28;4.00;;;26.20;99.90;;;;;;5002746;28;20219;-65
2023/08/19 09:37:37;;;;;;;5.55;4.00;;;26.40;99.90;;;;;;5004549;28;20220;-64
2023/08/19 09:40:10;;;;;;;6.75;5.22;;;27.00;99.90;;;;;;4988107;28;20200;-64
2023/08/19 09:42:41;;;;;;;8.00;5.07;;;27.30;99.90;;;;;;5003472;28;20216;-64
2023/08/19 09:45:17;;;;;;;8.90;6.03;;;27.20;99.90;;;;;;5004159;28;20254;-64
2023/08/19 09:47:50;;;;;;;7.47;5.60;;;26.80;99.90;;;;;;5004759;28;20228;-65
2023/08/19 09:50:22;;;;;;;10.52;5.85;;;26.70;99.90;;;;;;4985083;28;20240;-65
2023/08/19 09:52:55;;;;;;;6.05;5.55;;;26.60;99.90;;;;;;5001259;28;21050;-64
2023/08/19 09:55:24;;;;;;;8.20;5.88;;;26.30;99.90;;;;;;5008809;28;20199;-65
2023/08/19 09:57:54;;;;;;;13.27;5.60;;;26.20;99.90;;;;;;5007191;28;20223;-64
2023/08/19 10:00:24;;;;;;;7.70;4.93;;;26.00;99.90;;;;;;5003120;28;20678;-65
2023/08/19 10:02:52;;;;;;;7.80;4.18;;;25.90;99.90;;;;;;5000738;28;20224;-64
2023/08/19 10:05:25;;;;;;;6.22;4.57;;;25.90;99.90;;;;;;5004946;28;20218;-64
2023/08/19 10:07:58;;;;;;;6.97;4.13;;;26.00;99.90;;;;;;5006322;28;20230;-65
2023/08/19 10:10:30;;;;;;;6.70;4.10;;;26.00;99.90;;;;;;5000404;28;20204;-65
2023/08/19 10:13:02;;;;;;;5.05;4.10;;;26.00;99.90;;;;;;4988660;28;20235;-64
2023/08/19 10:15:34;;;;;;;3.00;2.80;;;25.90;99.90;;;;;;4989197;28;20230;-65
2023/08/19 10:18:08;;;;;;;3.58;2.88;;;25.80;99.90;;;;;;5005676;28;20306;-65
2023/08/19 10:20:38;;;;;;;6.57;2.80;;;25.60;99.90;;;;;;5002177;28;20219;-64
2023/08/19 10:23:09;;;;;;;5.35;2.60;;;25.50;99.90;;;;;;5003341;28;20687;-65
2023/08/19 10:25:42;;;;;;;3.30;2.38;;;25.60;99.90;;;;;;4995760;28;20239;-65
2023/08/19 10:28:23;;;;;;;6.20;2.60;;;25.60;99.90;;;;;;5008998;28;20196;-64
2023/08/19 10:31:05;;;;;;;2.40;2.20;;;25.60;99.90;;;;;;5003525;28;20242;-65
2023/08/19 10:33:39;;;;;;;5.07;2.47;;;25.60;99.90;;;;;;5003773;28;20281;-64
2023/08/19 10:36:08;;;;;;;4.40;2.37;;;25.60;99.90;;;;;;4979709;28;20618;-64
2023/08/19 10:38:42;;;;;;;3.63;2.40;;;25.40;99.90;;;;;;5004467;28;20227;-65
2023/08/19 10:41:33;;;;;;;4.57;2.60;;;25.20;99.90;;;;;;4997480;28;20585;-64
2023/08/19 10:44:07;;;;;;;3.77;2.50;;;25.10;99.90;;;;;;5001079;28;20389;-64
2023/08/19 10:46:37;;;;;;;3.87;2.97;;;24.90;99.90;;;;;;5003831;28;20215;-64
2023/08/19 10:49:08;;;;;;;3.23;2.67;;;24.80;99.90;;;;;;5007451;28;20206;-64
2023/08/19 10:51:50;;;;;;;3.90;2.70;;;24.70;99.90;;;;;;5000665;28;21133;-64
2023/08/19 10:54:31;;;;;;;3.97;2.30;;;24.60;99.90;;;;;;5003359;28;20226;-63
2023/08/19 10:57:13;;;;;;;4.20;2.50;;;24.50;99.90;;;;;;5000220;28;20677;-63
2023/08/19 10:59:44;;;;;;;3.93;2.53;;;24.50;99.90;;;;;;4989258;28;20254;-63
2023/08/19 11:02:13;;;;;;;4.23;2.67;;;24.40;99.90;;;;;;4999798;28;20215;-64
2023/08/19 11:04:45;;;;;;;2.60;2.40;;;24.40;99.90;;;;;;5002186;28;20218;-64
2023/08/19 11:07:13;;;;;;;3.50;3.20;;;24.40;99.90;;;;;;4999789;28;20198;-64
2023/08/19 11:09:43;;;;;;;3.87;2.70;;;24.40;99.90;;;;;;4997101;28;20246;-64
2023/08/19 11:12:12;;;;;;;4.63;3.00;;;24.50;99.90;;;;;;4986330;28;20230;-64
2023/08/19 11:14:40;;;;;;;3.53;2.53;;;24.50;99.90;;;;;;5000118;28;20233;-64
2023/08/19 11:17:10;;;;;;;4.03;2.50;;;24.50;99.90;;;;;;5004460;28;20665;-64
2023/08/19 11:19:40;;;;;;;8.40;2.73;;;24.50;99.90;;;;;;5003706;28;20229;-64
2023/08/19 11:22:13;;;;;;;6.07;3.00;;;24.40;99.90;;;;;;4998317;28;20186;-64
2023/08/19 11:24:42;;;;;;;7.17;2.83;;;24.30;99.90;;;;;;4979988;28;20244;-64
2023/08/19 11:27:12;;;;;;;5.37;2.83;;;24.20;99.90;;;;;;5003726;28;20240;-64
2023/08/19 11:29:40;;;;;;;7.10;3.20;;;24.10;99.90;;;;;;4999534;28;20617;-64
2023/08/19 11:32:10;;;;;;;5.23;2.90;;;24.10;99.90;;;;;;5000586;28;20565;-64
2023/08/19 11:34:38;;;;;;;3.07;2.83;;;24.00;99.90;;;;;;5006602;28;20320;-64
2023/08/19 11:37:07;;;;;;;3.17;2.77;;;23.90;99.90;;;;;;5005518;28;20198;-64
2023/08/19 11:39:35;;;;;;;3.67;2.57;;;23.70;99.90;;;;;;4992570;28;20225;-64
2023/08/19 11:42:03;;;;;;;4.97;2.50;;;23.60;99.90;;;;;;5009604;28;20580;-64
2023/08/19 11:44:32;;;;;;;3.93;2.77;;;23.60;99.90;;;;;;4988670;28;20237;-64
2023/08/19 11:47:01;;;;;;;3.53;2.50;;;23.50;99.90;;;;;;5002967;28;20308;-64
2023/08/19 11:49:32;;;;;;;5.20;2.80;;;23.50;99.90;;;;;;4990868;28;20214;-65
2023/08/19 11:52:00;;;;;;;3.13;2.50;;;23.40;99.90;;;;;;5005599;28;20209;-64
2023/08/19 11:54:29;;;;;;;3.40;2.40;;;23.40;99.90;;;;;;4983324;28;20308;-64
2023/08/19 11:57:02;;;;;;;5.33;2.60;;;23.50;99.90;;;;;;4985873;28;20305;-64
2023/08/19 11:59:32;;;;;;;9.77;2.67;;;23.50;99.90;;;;;;5002538;28;20244;-64
2023/08/19 12:02:07;;;;;;;5.20;2.70;;;23.50;99.90;;;;;;5004659;28;20218;-64
2023/08/19 12:04:37;;;;;;;6.20;2.60;;;23.50;99.90;;;;;;4983444;28;20264;-64
2023/08/19 12:07:09;;;;;;;9.80;2.60;;;23.50;99.90;;;;;;5004707;28;20185;-64
2023/08/19 12:09:40;;;;;;;5.87;2.90;;;23.50;99.90;;;;;;5002006;28;20325;-64
2023/08/19 12:12:10;;;;;;;3.43;2.47;;;23.50;99.90;;;;;;5002322;28;20661;-64
2023/08/19 12:14:39;;;;;;;5.83;2.47;;;23.50;99.90;;;;;;5003191;28;20230;-64
2023/08/19 12:17:09;;;;;;;2.97;2.40;;;23.50;99.90;;;;;;5003241;28;20233;-64
2023/08/19 12:19:39;;;;;;;3.10;2.13;;;23.50;99.90;;;;;;5003604;28;20241;-64
2023/08/19 12:22:08;;;;;;;5.93;2.30;;;23.70;99.90;;;;;;5006145;28;20207;-64
2023/08/19 12:24:36;;;;;;;4.00;2.47;;;23.80;99.90;;;;;;5003071;28;20646;-64
2023/08/19 12:27:05;;;;;;;3.07;2.30;;;23.90;99.90;;;;;;5002477;28;20751;-64
2023/08/19 12:29:33;;;;;;;3.47;2.33;;;24.00;99.90;;;;;;5002275;28;20231;-64
2023/08/19 12:32:02;;;;;;;2.70;1.80;;;24.00;99.90;;;;;;5003729;28;20225;-64
2023/08/19 12:34:30;;;;;;;4.43;2.30;;;24.00;99.90;;;;;;5002148;28;20199;-65
2023/08/19 12:37:00;;;;;;;3.50;2.27;;;24.10;99.90;;;;;;5005951;28;20190;-64
2023/08/19 12:39:31;;;;;;;3.67;2.10;;;24.20;99.90;;;;;;5004253;28;20236;-64
2023/08/19 12:42:00;;;;;;;7.00;2.37;;;24.30;99.90;;;;;;5008981;28;20637;-64
2023/08/19 12:44:28;;;;;;;2.30;2.10;;;24.40;99.90;;;;;;5004660;28;20310;-64
2023/08/19 12:46:56;;;;;;;7.03;2.27;;;24.40;99.90;;;;;;5001930;28;20344;-65
2023/08/19 12:49:25;;;;;;;4.17;2.10;;;24.50;99.90;;;;;;5002300;28;20568;-64
2023/08/19 12:51:53;;;;;;;5.83;2.17;;;24.70;99.90;;;;;;5000524;28;20710;-64
2023/08/19 12:54:23;;;;;;;3.30;2.20;;;25.00;99.90;;;;;;5010354;28;20237;-65